KEPH/EPH METAR and TAF weather

Enter ICAO airport designator
Station Type Date Time Source
KEPH METAR 2021/07/24 19:53 UTC NOAA

KEPH 241953Z AUTO 20009G16KT 7SM CLR 31/07 A3006 RMK AO2 SLP167 T03110067 TSNO


Station Type Date Time Source
KEPH Decoded METAR 2021/07/24 19:53 UTC NOAA

EPHRATA MUNICIPAL AIRPORT, WA, United States (KEPH) 47-18N 119-31W 383M
Jul 24, 2021 - 03:53 PM EDT / 2021.07.24 1953 UTC
Wind: from the SSW (200 degrees) at 10 MPH (9 KT) gusting to 18 MPH (16 KT):0
Visibility: 7 mile(s):0
Sky conditions: clear
Temperature: 88.0 F (31.1 C)
Dew Point: 44.1 F (6.7 C)
Relative Humidity: 21%
Pressure (altimeter): 30.06 in. Hg (1017 hPa)
ob: KEPH 241953Z AUTO 20009G16KT 7SM CLR 31/07 A3006 RMK AO2 SLP167 T03110067 TSNO
cycle: 20

Station Type Date Time Source
KEPH TAF UTC NOAA

Error!

Example: see airport list